ninetofive.me alexa rank chart, ninetofive.me alexa rank daily changes

ninetofive.me alexa rank chart, ninetofive.me alexa rank daily changes

ninetofive.me
Actual rank:
496 233

RANK HISTORY

Date Rank Diff
2016/12/11 496 233 -13 341
2016/12/10 509 574 -20 048
2016/12/09 529 622 +10 852
2016/12/08 518 770 -40 184
2016/12/07 558 954 +3 583
2016/12/06 555 371 +12 899
2016/12/05 542 472 +20 492
2016/12/04 521 980 -26 481
2016/12/02 548 461 -25 843
2016/12/01 574 304 -15 391
2016/11/30 589 695 +6 439
2016/11/29 583 256 -11 131
2016/11/28 594 387 +785
2016/11/27 593 602 +91 686
2016/11/26 501 916 -5 315
2016/11/25 507 231 +76 587
2016/11/24 430 644 +20 990
2016/11/23 409 654 +25 613
2016/11/19 384 041 +5 595
2016/11/18 378 446 +1 049
2016/11/17 377 397 -6 868
2016/11/16 384 265 -5 434
2016/11/15 389 699 -14 310
2016/11/14 404 009 -2 020
2016/11/13 406 029 +10 231
2016/11/12 395 798 +11 579
2016/11/11 384 219 -2 318
2016/11/10 386 537 +10 187
2016/11/09 376 350 -14 094
2016/11/08 390 444 +7 920
2016/11/07 382 524 +17 898
2016/11/06 364 626 -7 804
2016/11/05 372 430 -10 420
2016/11/04 382 850 -3 518
2016/11/03 386 368 -4 311
2016/11/02 390 679 -419
2016/11/01 391 098 +3 135
2016/10/31 387 963 +10 464
2016/10/30 377 499 +3 065
2016/10/29 374 434 +11 330
2016/10/28 363 104 +2 743
2016/10/27 360 361 -28 681
2016/10/26 389 042 +5 307
2016/10/25 383 735 -59 857
2016/10/24 443 592 -13 016
2016/10/23 456 608 +8 299
2016/10/22 448 309 -8 315
2016/10/21 456 624 -6 851
2016/10/20 463 475 -3 736
2016/10/19 467 211 +4 186
2016/10/18 463 025 -18 778
2016/10/17 481 803 +27 758
2016/10/16 454 045 +12 499
2016/10/15 441 546 +58 277
2016/10/14 383 269 +9 375
2016/10/13 373 894 -5 575
2016/10/12 379 469

WIDGET FOR YOUR SITE

DOMAINS WITH THE NEAREST RANK

Domain Rank
manymorestores.com 496 228
stevienicksofficial.com 496 229
vtls.com 496 230
hk-test.co.kr 496 231
myhqpornstars.com 496 232
ninetofive.me 496 233
beacontheatre.com 496 234
ukrpress.net 496 235
energomir.net 496 236
essalamonline.com 496 237
training-style.net 496 238

DOMAINS WITH THE NEAREST RANK BY TLD .me

Domain Rank
sazan.me 495 586
hottopic.me 495 677
bigolive.me 495 844
jasonpark.me 495 931
wangpan007.me 496 041
ninetofive.me 496 233
omgshockingfacts.me 496 242
ceritasexdewasa.me 496 457
wp.me 496 478
templatemonster.me 496 485
esaal.me 496 548